sensor_id;sensor_type;location;lat;lon;timestamp;P1;durP1;ratioP1;P2;durP2;ratioP2
7929;SDS011;4010;42.698;23.124;2023-07-31T00:01:19;6.73;;;5.93;;
7929;SDS011;4010;42.698;23.124;2023-07-31T00:03:46;6.40;;;5.90;;
7929;SDS011;4010;42.698;23.124;2023-07-31T00:06:12;6.43;;;5.90;;
7929;SDS011;4010;42.698;23.124;2023-07-31T00:08:39;6.43;;;5.93;;
7929;SDS011;4010;42.698;23.124;2023-07-31T00:11:07;7.00;;;6.37;;
7929;SDS011;4010;42.698;23.124;2023-07-31T00:13:34;6.97;;;6.37;;
7929;SDS011;4010;42.698;23.124;2023-07-31T00:16:00;7.63;;;7.03;;
7929;SDS011;4010;42.698;23.124;2023-07-31T00:18:27;7.87;;;7.10;;
7929;SDS011;4010;42.698;23.124;2023-07-31T00:20:54;7.03;;;6.33;;
7929;SDS011;4010;42.698;23.124;2023-07-31T00:23:20;7.93;;;7.23;;
7929;SDS011;4010;42.698;23.124;2023-07-31T00:25:47;7.97;;;7.37;;
7929;SDS011;4010;42.698;23.124;2023-07-31T00:28:15;8.33;;;7.53;;
7929;SDS011;4010;42.698;23.124;2023-07-31T00:30:42;7.33;;;6.80;;
7929;SDS011;4010;42.698;23.124;2023-07-31T00:33:08;10.40;;;9.53;;
7929;SDS011;4010;42.698;23.124;2023-07-31T00:35:35;12.37;;;11.47;;
7929;SDS011;4010;42.698;23.124;2023-07-31T00:38:02;12.00;;;11.00;;
7929;SDS011;4010;42.698;23.124;2023-07-31T00:40:29;11.60;;;10.60;;
7929;SDS011;4010;42.698;23.124;2023-07-31T00:42:55;11.40;;;10.30;;
7929;SDS011;4010;42.698;23.124;2023-07-31T00:45:23;11.70;;;10.70;;
7929;SDS011;4010;42.698;23.124;2023-07-31T00:47:52;12.33;;;11.23;;
7929;SDS011;4010;42.698;23.124;2023-07-31T00:50:18;12.73;;;11.63;;
7929;SDS011;4010;42.698;23.124;2023-07-31T00:52:45;12.87;;;11.77;;
7929;SDS011;4010;42.698;23.124;2023-07-31T00:55:12;12.30;;;11.40;;
7929;SDS011;4010;42.698;23.124;2023-07-31T00:57:39;11.63;;;10.80;;
7929;SDS011;4010;42.698;23.124;2023-07-31T01:00:08;12.37;;;11.30;;
7929;SDS011;4010;42.698;23.124;2023-07-31T01:02:36;14.00;;;12.80;;
7929;SDS011;4010;42.698;23.124;2023-07-31T01:05:04;18.53;;;16.83;;
7929;SDS011;4010;42.698;23.124;2023-07-31T01:07:33;21.63;;;19.83;;
7929;SDS011;4010;42.698;23.124;2023-07-31T01:10:07;26.03;;;23.57;;
7929;SDS011;4010;42.698;23.124;2023-07-31T01:12:40;24.97;;;22.77;;
7929;SDS011;4010;42.698;23.124;2023-07-31T01:15:08;28.20;;;25.70;;
7929;SDS011;4010;42.698;23.124;2023-07-31T01:17:38;28.10;;;25.73;;
7929;SDS011;4010;42.698;23.124;2023-07-31T01:20:05;26.73;;;24.43;;
7929;SDS011;4010;42.698;23.124;2023-07-31T01:22:49;26.60;;;24.33;;
7929;SDS011;4010;42.698;23.124;2023-07-31T01:28:25;28.70;;;26.00;;
7929;SDS011;4010;42.698;23.124;2023-07-31T01:30:56;27.70;;;25.33;;
7929;SDS011;4010;42.698;23.124;2023-07-31T01:33:26;28.13;;;25.47;;
7929;SDS011;4010;42.698;23.124;2023-07-31T01:35:54;27.87;;;25.37;;
7929;SDS011;4010;42.698;23.124;2023-07-31T01:38:22;30.20;;;27.43;;
7929;SDS011;4010;42.698;23.124;2023-07-31T01:40:50;30.10;;;27.40;;
7929;SDS011;4010;42.698;23.124;2023-07-31T01:43:19;29.10;;;26.50;;
7929;SDS011;4010;42.698;23.124;2023-07-31T01:45:45;30.40;;;27.67;;
7929;SDS011;4010;42.698;23.124;2023-07-31T01:48:12;29.20;;;26.63;;
7929;SDS011;4010;42.698;23.124;2023-07-31T01:50:39;27.83;;;25.47;;
7929;SDS011;4010;42.698;23.124;2023-07-31T01:53:05;27.73;;;25.27;;
7929;SDS011;4010;42.698;23.124;2023-07-31T01:55:32;26.90;;;24.60;;
7929;SDS011;4010;42.698;23.124;2023-07-31T01:57:58;28.27;;;25.67;;
7929;SDS011;4010;42.698;23.124;2023-07-31T02:00:26;29.27;;;26.57;;
7929;SDS011;4010;42.698;23.124;2023-07-31T02:02:53;28.13;;;25.73;;
7929;SDS011;4010;42.698;23.124;2023-07-31T02:05:20;27.77;;;25.43;;
7929;SDS011;4010;42.698;23.124;2023-07-31T02:07:46;29.87;;;27.23;;
7929;SDS011;4010;42.698;23.124;2023-07-31T02:10:13;30.33;;;27.60;;
7929;SDS011;4010;42.698;23.124;2023-07-31T02:12:40;27.97;;;25.57;;
7929;SDS011;4010;42.698;23.124;2023-07-31T02:15:07;29.03;;;26.53;;
7929;SDS011;4010;42.698;23.124;2023-07-31T02:17:35;29.10;;;26.57;;
7929;SDS011;4010;42.698;23.124;2023-07-31T02:20:02;27.97;;;25.67;;
7929;SDS011;4010;42.698;23.124;2023-07-31T02:22:29;28.00;;;25.67;;
7929;SDS011;4010;42.698;23.124;2023-07-31T02:24:55;28.83;;;26.43;;
7929;SDS011;4010;42.698;23.124;2023-07-31T02:27:22;29.10;;;26.67;;
7929;SDS011;4010;42.698;23.124;2023-07-31T02:29:52;30.00;;;27.23;;
7929;SDS011;4010;42.698;23.124;2023-07-31T02:32:19;31.20;;;28.50;;
7929;SDS011;4010;42.698;23.124;2023-07-31T02:34:47;31.03;;;28.30;;
7929;SDS011;4010;42.698;23.124;2023-07-31T02:37:13;30.93;;;28.10;;
7929;SDS011;4010;42.698;23.124;2023-07-31T02:39:40;30.63;;;28.03;;
7929;SDS011;4010;42.698;23.124;2023-07-31T02:42:07;30.87;;;28.30;;
7929;SDS011;4010;42.698;23.124;2023-07-31T02:44:34;31.37;;;28.53;;
7929;SDS011;4010;42.698;23.124;2023-07-31T02:47:00;30.40;;;27.80;;
7929;SDS011;4010;42.698;23.124;2023-07-31T02:49:28;30.90;;;28.20;;
7929;SDS011;4010;42.698;23.124;2023-07-31T02:51:56;29.07;;;26.53;;
7929;SDS011;4010;42.698;23.124;2023-07-31T02:54:22;29.83;;;27.33;;
7929;SDS011;4010;42.698;23.124;2023-07-31T02:56:49;29.20;;;26.57;;
7929;SDS011;4010;42.698;23.124;2023-07-31T02:59:16;28.07;;;25.47;;
7929;SDS011;4010;42.698;23.124;2023-07-31T03:01:43;27.77;;;25.37;;
7929;SDS011;4010;42.698;23.124;2023-07-31T03:04:09;28.20;;;25.80;;
7929;SDS011;4010;42.698;23.124;2023-07-31T03:06:36;29.93;;;27.10;;
7929;SDS011;4010;42.698;23.124;2023-07-31T03:09:04;28.40;;;25.70;;
7929;SDS011;4010;42.698;23.124;2023-07-31T03:11:31;29.03;;;26.53;;
7929;SDS011;4010;42.698;23.124;2023-07-31T03:13:57;30.53;;;27.93;;
7929;SDS011;4010;42.698;23.124;2023-07-31T03:16:24;30.23;;;27.57;;
7929;SDS011;4010;42.698;23.124;2023-07-31T03:18:50;29.97;;;27.37;;
7929;SDS011;4010;42.698;23.124;2023-07-31T03:21:17;31.90;;;29.10;;
7929;SDS011;4010;42.698;23.124;2023-07-31T03:23:44;32.37;;;29.33;;
7929;SDS011;4010;42.698;23.124;2023-07-31T03:26:12;31.10;;;28.23;;
7929;SDS011;4010;42.698;23.124;2023-07-31T03:28:38;30.67;;;27.87;;
7929;SDS011;4010;42.698;23.124;2023-07-31T03:31:05;33.87;;;30.67;;
7929;SDS011;4010;42.698;23.124;2023-07-31T03:33:33;33.50;;;30.47;;
7929;SDS011;4010;42.698;23.124;2023-07-31T03:36:00;32.63;;;29.67;;
7929;SDS011;4010;42.698;23.124;2023-07-31T03:38:27;34.63;;;31.43;;
7929;SDS011;4010;42.698;23.124;2023-07-31T03:40:53;35.07;;;31.87;;
7929;SDS011;4010;42.698;23.124;2023-07-31T03:43:21;35.10;;;31.80;;
7929;SDS011;4010;42.698;23.124;2023-07-31T03:45:48;34.60;;;31.50;;
7929;SDS011;4010;42.698;23.124;2023-07-31T03:48:15;32.87;;;29.90;;
7929;SDS011;4010;42.698;23.124;2023-07-31T03:50:42;33.70;;;30.60;;
7929;SDS011;4010;42.698;23.124;2023-07-31T03:53:08;33.37;;;30.17;;
7929;SDS011;4010;42.698;23.124;2023-07-31T03:55:35;34.13;;;30.93;;
7929;SDS011;4010;42.698;23.124;2023-07-31T03:58:02;34.87;;;31.47;;
7929;SDS011;4010;42.698;23.124;2023-07-31T04:00:30;33.77;;;30.33;;
7929;SDS011;4010;42.698;23.124;2023-07-31T04:02:57;34.57;;;31.17;;
7929;SDS011;4010;42.698;23.124;2023-07-31T04:05:23;32.20;;;29.30;;
7929;SDS011;4010;42.698;23.124;2023-07-31T04:07:50;34.47;;;31.37;;
7929;SDS011;4010;42.698;23.124;2023-07-31T04:10:17;34.77;;;31.33;;
7929;SDS011;4010;42.698;23.124;2023-07-31T04:12:43;33.33;;;30.20;;
7929;SDS011;4010;42.698;23.124;2023-07-31T04:15:10;34.63;;;31.33;;
7929;SDS011;4010;42.698;23.124;2023-07-31T04:17:38;31.23;;;28.53;;
7929;SDS011;4010;42.698;23.124;2023-07-31T04:20:05;32.60;;;29.60;;
7929;SDS011;4010;42.698;23.124;2023-07-31T04:22:32;31.83;;;28.83;;
7929;SDS011;4010;42.698;23.124;2023-07-31T04:24:59;33.47;;;30.20;;
7929;SDS011;4010;42.698;23.124;2023-07-31T04:27:26;31.77;;;28.87;;
7929;SDS011;4010;42.698;23.124;2023-07-31T04:29:52;31.33;;;28.43;;
7929;SDS011;4010;42.698;23.124;2023-07-31T04:32:19;30.23;;;27.53;;
7929;SDS011;4010;42.698;23.124;2023-07-31T04:34:47;29.80;;;27.10;;
7929;SDS011;4010;42.698;23.124;2023-07-31T04:37:14;29.53;;;26.83;;
7929;SDS011;4010;42.698;23.124;2023-07-31T04:39:40;30.27;;;27.60;;
7929;SDS011;4010;42.698;23.124;2023-07-31T04:42:07;27.47;;;25.10;;
7929;SDS011;4010;42.698;23.124;2023-07-31T04:44:34;25.47;;;23.33;;
7929;SDS011;4010;42.698;23.124;2023-07-31T04:47:01;24.50;;;22.50;;
7929;SDS011;4010;42.698;23.124;2023-07-31T04:49:28;19.30;;;17.80;;
7929;SDS011;4010;42.698;23.124;2023-07-31T04:51:56;18.70;;;17.30;;
7929;SDS011;4010;42.698;23.124;2023-07-31T04:54:23;19.00;;;17.30;;
7929;SDS011;4010;42.698;23.124;2023-07-31T04:56:49;16.77;;;15.30;;
7929;SDS011;4010;42.698;23.124;2023-07-31T04:59:17;15.10;;;14.10;;
7929;SDS011;4010;42.698;23.124;2023-07-31T05:01:44;15.13;;;14.03;;
7929;SDS011;4010;42.698;23.124;2023-07-31T05:04:12;16.97;;;15.67;;
7929;SDS011;4010;42.698;23.124;2023-07-31T05:06:39;13.77;;;12.57;;
7929;SDS011;4010;42.698;23.124;2023-07-31T05:09:07;13.67;;;12.67;;
7929;SDS011;4010;42.698;23.124;2023-07-31T05:11:35;13.07;;;12.07;;
7929;SDS011;4010;42.698;23.124;2023-07-31T05:14:02;14.07;;;13.07;;
7929;SDS011;4010;42.698;23.124;2023-07-31T05:16:29;13.03;;;12.13;;
7929;SDS011;4010;42.698;23.124;2023-07-31T05:18:55;12.77;;;11.67;;
7929;SDS011;4010;42.698;23.124;2023-07-31T05:21:22;11.93;;;11.03;;
7929;SDS011;4010;42.698;23.124;2023-07-31T05:23:49;10.13;;;9.43;;
7929;SDS011;4010;42.698;23.124;2023-07-31T05:26:17;11.10;;;10.30;;
7929;SDS011;4010;42.698;23.124;2023-07-31T05:28:43;10.47;;;9.67;;
7929;SDS011;4010;42.698;23.124;2023-07-31T05:31:10;9.40;;;8.70;;
7929;SDS011;4010;42.698;23.124;2023-07-31T05:33:37;9.13;;;8.43;;
7929;SDS011;4010;42.698;23.124;2023-07-31T05:36:04;7.57;;;6.97;;
7929;SDS011;4010;42.698;23.124;2023-07-31T05:38:30;7.83;;;7.30;;
7929;SDS011;4010;42.698;23.124;2023-07-31T05:40:57;7.50;;;6.70;;
7929;SDS011;4010;42.698;23.124;2023-07-31T05:43:25;7.13;;;6.63;;
7929;SDS011;4010;42.698;23.124;2023-07-31T05:45:52;7.20;;;6.63;;
7929;SDS011;4010;42.698;23.124;2023-07-31T05:48:18;6.77;;;5.83;;
7929;SDS011;4010;42.698;23.124;2023-07-31T05:50:45;6.93;;;6.43;;
7929;SDS011;4010;42.698;23.124;2023-07-31T05:53:12;6.60;;;6.10;;
7929;SDS011;4010;42.698;23.124;2023-07-31T05:55:38;6.30;;;5.67;;
7929;SDS011;4010;42.698;23.124;2023-07-31T05:58:05;6.57;;;6.07;;
7929;SDS011;4010;42.698;23.124;2023-07-31T06:00:33;5.63;;;5.13;;
7929;SDS011;4010;42.698;23.124;2023-07-31T06:03:00;5.93;;;5.53;;
7929;SDS011;4010;42.698;23.124;2023-07-31T06:05:26;5.90;;;5.40;;
7929;SDS011;4010;42.698;23.124;2023-07-31T06:07:55;5.80;;;5.30;;
7929;SDS011;4010;42.698;23.124;2023-07-31T06:10:21;5.70;;;5.30;;
7929;SDS011;4010;42.698;23.124;2023-07-31T06:12:48;5.47;;;5.07;;
7929;SDS011;4010;42.698;23.124;2023-07-31T06:15:15;4.67;;;4.37;;
7929;SDS011;4010;42.698;23.124;2023-07-31T06:17:44;6.83;;;4.70;;
7929;SDS011;4010;42.698;23.124;2023-07-31T06:20:11;4.57;;;4.23;;
7929;SDS011;4010;42.698;23.124;2023-07-31T06:22:38;4.30;;;3.93;;
7929;SDS011;4010;42.698;23.124;2023-07-31T06:25:05;4.30;;;4.00;;
7929;SDS011;4010;42.698;23.124;2023-07-31T06:27:32;4.30;;;4.00;;
7929;SDS011;4010;42.698;23.124;2023-07-31T06:29:58;3.57;;;3.27;;
7929;SDS011;4010;42.698;23.124;2023-07-31T06:32:25;4.00;;;3.70;;
7929;SDS011;4010;42.698;23.124;2023-07-31T06:34:53;3.37;;;3.17;;
7929;SDS011;4010;42.698;23.124;2023-07-31T06:37:20;3.27;;;3.03;;
7929;SDS011;4010;42.698;23.124;2023-07-31T06:39:46;4.83;;;3.30;;
7929;SDS011;4010;42.698;23.124;2023-07-31T06:42:13;4.33;;;3.50;;
7929;SDS011;4010;42.698;23.124;2023-07-31T06:44:40;3.47;;;3.20;;
7929;SDS011;4010;42.698;23.124;2023-07-31T06:47:07;3.43;;;3.13;;
7929;SDS011;4010;42.698;23.124;2023-07-31T06:49:34;3.87;;;3.57;;
7929;SDS011;4010;42.698;23.124;2023-07-31T06:52:02;3.70;;;3.50;;
7929;SDS011;4010;42.698;23.124;2023-07-31T06:54:29;3.73;;;3.43;;
7929;SDS011;4010;42.698;23.124;2023-07-31T06:56:56;3.50;;;3.20;;
7929;SDS011;4010;42.698;23.124;2023-07-31T06:59:23;3.33;;;2.77;;
7929;SDS011;4010;42.698;23.124;2023-07-31T07:01:49;3.83;;;3.53;;
7929;SDS011;4010;42.698;23.124;2023-07-31T07:04:16;3.50;;;3.20;;
7929;SDS011;4010;42.698;23.124;2023-07-31T07:06:42;3.80;;;2.90;;
7929;SDS011;4010;42.698;23.124;2023-07-31T07:09:10;3.33;;;3.03;;
7929;SDS011;4010;42.698;23.124;2023-07-31T07:11:37;3.30;;;3.10;;
7929;SDS011;4010;42.698;23.124;2023-07-31T07:14:04;3.00;;;2.80;;
7929;SDS011;4010;42.698;23.124;2023-07-31T07:16:30;2.90;;;2.70;;
7929;SDS011;4010;42.698;23.124;2023-07-31T07:18:57;3.07;;;2.87;;
7929;SDS011;4010;42.698;23.124;2023-07-31T07:21:24;3.33;;;3.13;;
7929;SDS011;4010;42.698;23.124;2023-07-31T07:23:50;5.80;;;5.40;;
7929;SDS011;4010;42.698;23.124;2023-07-31T07:26:18;3.07;;;2.87;;
7929;SDS011;4010;42.698;23.124;2023-07-31T07:28:45;2.83;;;2.63;;
7929;SDS011;4010;42.698;23.124;2023-07-31T07:31:11;3.10;;;2.90;;
7929;SDS011;4010;42.698;23.124;2023-07-31T07:33:38;2.80;;;2.60;;
7929;SDS011;4010;42.698;23.124;2023-07-31T07:36:05;2.70;;;2.50;;
7929;SDS011;4010;42.698;23.124;2023-07-31T07:38:34;2.87;;;2.67;;
7929;SDS011;4010;42.698;23.124;2023-07-31T07:41:01;2.93;;;2.63;;
7929;SDS011;4010;42.698;23.124;2023-07-31T07:43:29;3.10;;;2.90;;
7929;SDS011;4010;42.698;23.124;2023-07-31T07:45:56;2.80;;;2.60;;
7929;SDS011;4010;42.698;23.124;2023-07-31T07:48:22;3.00;;;2.70;;
7929;SDS011;4010;42.698;23.124;2023-07-31T07:50:50;3.03;;;2.73;;
7929;SDS011;4010;42.698;23.124;2023-07-31T07:53:16;2.87;;;2.60;;
7929;SDS011;4010;42.698;23.124;2023-07-31T07:55:43;3.23;;;2.93;;
7929;SDS011;4010;42.698;23.124;2023-07-31T07:58:10;2.87;;;2.57;;
7929;SDS011;4010;42.698;23.124;2023-07-31T08:00:38;3.17;;;2.57;;
7929;SDS011;4010;42.698;23.124;2023-07-31T08:03:05;3.90;;;3.60;;
7929;SDS011;4010;42.698;23.124;2023-07-31T08:05:32;2.90;;;2.70;;
7929;SDS011;4010;42.698;23.124;2023-07-31T08:07:59;2.97;;;2.77;;
7929;SDS011;4010;42.698;23.124;2023-07-31T08:10:26;3.77;;;2.60;;
7929;SDS011;4010;42.698;23.124;2023-07-31T08:12:52;3.53;;;2.70;;
7929;SDS011;4010;42.698;23.124;2023-07-31T08:15:19;2.50;;;2.40;;
7929;SDS011;4010;42.698;23.124;2023-07-31T08:17:47;2.30;;;2.10;;
7929;SDS011;4010;42.698;23.124;2023-07-31T08:20:13;2.73;;;2.53;;
7929;SDS011;4010;42.698;23.124;2023-07-31T08:22:40;2.90;;;2.60;;
7929;SDS011;4010;42.698;23.124;2023-07-31T08:25:07;2.90;;;2.70;;
7929;SDS011;4010;42.698;23.124;2023-07-31T08:27:34;3.33;;;2.87;;
7929;SDS011;4010;42.698;23.124;2023-07-31T08:30:01;2.93;;;2.67;;
7929;SDS011;4010;42.698;23.124;2023-07-31T08:32:27;2.60;;;2.40;;
7929;SDS011;4010;42.698;23.124;2023-07-31T08:34:55;2.47;;;2.27;;
7929;SDS011;4010;42.698;23.124;2023-07-31T08:37:22;2.60;;;2.40;;
7929;SDS011;4010;42.698;23.124;2023-07-31T08:39:49;3.13;;;2.50;;
7929;SDS011;4010;42.698;23.124;2023-07-31T08:42:15;2.90;;;2.70;;
7929;SDS011;4010;42.698;23.124;2023-07-31T08:44:42;5.07;;;3.27;;
7929;SDS011;4010;42.698;23.124;2023-07-31T08:47:09;3.03;;;2.83;;
7929;SDS011;4010;42.698;23.124;2023-07-31T08:49:37;3.43;;;2.83;;
7929;SDS011;4010;42.698;23.124;2023-07-31T08:52:07;4.83;;;2.70;;
7929;SDS011;4010;42.698;23.124;2023-07-31T08:54:33;3.73;;;2.53;;
7929;SDS011;4010;42.698;23.124;2023-07-31T08:57:00;2.97;;;2.60;;
7929;SDS011;4010;42.698;23.124;2023-07-31T08:59:27;2.80;;;2.60;;
7929;SDS011;4010;42.698;23.124;2023-07-31T09:01:57;3.10;;;2.80;;
7929;SDS011;4010;42.698;23.124;2023-07-31T09:04:30;3.07;;;2.87;;
7929;SDS011;4010;42.698;23.124;2023-07-31T09:06:59;3.60;;;2.60;;
7929;SDS011;4010;42.698;23.124;2023-07-31T09:09:29;2.70;;;2.50;;
7929;SDS011;4010;42.698;23.124;2023-07-31T09:11:57;3.00;;;2.80;;
7929;SDS011;4010;42.698;23.124;2023-07-31T09:14:24;2.77;;;2.57;;
7929;SDS011;4010;42.698;23.124;2023-07-31T09:16:52;2.63;;;2.53;;
7929;SDS011;4010;42.698;23.124;2023-07-31T09:19:26;3.60;;;2.97;;
7929;SDS011;4010;42.698;23.124;2023-07-31T09:21:53;2.83;;;2.60;;
7929;SDS011;4010;42.698;23.124;2023-07-31T09:24:26;2.70;;;2.50;;
7929;SDS011;4010;42.698;23.124;2023-07-31T09:26:56;2.87;;;2.67;;
7929;SDS011;4010;42.698;23.124;2023-07-31T09:29:24;3.00;;;2.67;;
7929;SDS011;4010;42.698;23.124;2023-07-31T09:31:52;3.23;;;2.90;;
7929;SDS011;4010;42.698;23.124;2023-07-31T09:34:20;2.70;;;2.50;;
7929;SDS011;4010;42.698;23.124;2023-07-31T09:36:54;4.93;;;3.00;;
7929;SDS011;4010;42.698;23.124;2023-07-31T09:39:21;4.20;;;2.83;;
7929;SDS011;4010;42.698;23.124;2023-07-31T09:41:53;3.40;;;2.77;;
7929;SDS011;4010;42.698;23.124;2023-07-31T09:44:22;3.03;;;2.83;;
7929;SDS011;4010;42.698;23.124;2023-07-31T09:47:03;2.33;;;2.23;;
7929;SDS011;4010;42.698;23.124;2023-07-31T09:49:31;2.53;;;2.33;;
7929;SDS011;4010;42.698;23.124;2023-07-31T09:51:57;2.47;;;2.37;;
7929;SDS011;4010;42.698;23.124;2023-07-31T09:54:24;2.67;;;2.47;;
7929;SDS011;4010;42.698;23.124;2023-07-31T09:56:51;2.90;;;2.70;;
7929;SDS011;4010;42.698;23.124;2023-07-31T09:59:19;2.33;;;2.23;;
7929;SDS011;4010;42.698;23.124;2023-07-31T10:01:47;3.07;;;2.30;;
7929;SDS011;4010;42.698;23.124;2023-07-31T10:04:15;2.70;;;2.50;;
7929;SDS011;4010;42.698;23.124;2023-07-31T10:06:44;3.30;;;2.20;;
7929;SDS011;4010;42.698;23.124;2023-07-31T10:09:15;3.00;;;2.20;;
7929;SDS011;4010;42.698;23.124;2023-07-31T10:11:46;2.80;;;2.60;;
7929;SDS011;4010;42.698;23.124;2023-07-31T10:14:18;2.57;;;2.40;;
7929;SDS011;4010;42.698;23.124;2023-07-31T10:16:46;2.70;;;2.50;;
7929;SDS011;4010;42.698;23.124;2023-07-31T10:19:15;3.83;;;2.40;;
7929;SDS011;4010;42.698;23.124;2023-07-31T10:21:43;3.10;;;2.80;;
7929;SDS011;4010;42.698;23.124;2023-07-31T10:24:09;2.70;;;2.50;;
7929;SDS011;4010;42.698;23.124;2023-07-31T10:26:37;2.70;;;2.50;;
7929;SDS011;4010;42.698;23.124;2023-07-31T10:29:05;2.33;;;2.23;;
7929;SDS011;4010;42.698;23.124;2023-07-31T10:31:32;2.40;;;2.30;;
7929;SDS011;4010;42.698;23.124;2023-07-31T10:34:01;2.63;;;2.43;;
7929;SDS011;4010;42.698;23.124;2023-07-31T10:36:29;2.43;;;2.23;;
7929;SDS011;4010;42.698;23.124;2023-07-31T10:38:56;2.30;;;2.20;;
7929;SDS011;4010;42.698;23.124;2023-07-31T10:41:27;3.17;;;2.87;;
7929;SDS011;4010;42.698;23.124;2023-07-31T10:43:57;2.37;;;2.10;;
7929;SDS011;4010;42.698;23.124;2023-07-31T10:46:24;2.03;;;1.93;;
7929;SDS011;4010;42.698;23.124;2023-07-31T10:48:57;2.50;;;2.33;;
7929;SDS011;4010;42.698;23.124;2023-07-31T10:51:26;3.27;;;2.37;;
7929;SDS011;4010;42.698;23.124;2023-07-31T10:54:10;4.70;;;2.20;;
7929;SDS011;4010;42.698;23.124;2023-07-31T10:56:37;2.80;;;2.60;;
7929;SDS011;4010;42.698;23.124;2023-07-31T10:59:04;3.03;;;2.50;;
7929;SDS011;4010;42.698;23.124;2023-07-31T11:04:16;2.90;;;2.70;;
7929;SDS011;4010;42.698;23.124;2023-07-31T11:06:56;2.50;;;2.30;;
7929;SDS011;4010;42.698;23.124;2023-07-31T11:09:24;2.60;;;2.40;;
7929;SDS011;4010;42.698;23.124;2023-07-31T11:11:55;3.13;;;2.73;;
7929;SDS011;4010;42.698;23.124;2023-07-31T11:14:22;2.60;;;2.40;;
7929;SDS011;4010;42.698;23.124;2023-07-31T11:16:49;2.97;;;2.77;;
7929;SDS011;4010;42.698;23.124;2023-07-31T11:19:21;3.00;;;2.80;;
7929;SDS011;4010;42.698;23.124;2023-07-31T11:21:48;3.00;;;2.80;;
7929;SDS011;4010;42.698;23.124;2023-07-31T11:24:16;3.47;;;3.17;;
7929;SDS011;4010;42.698;23.124;2023-07-31T11:26:47;3.47;;;3.17;;
7929;SDS011;4010;42.698;23.124;2023-07-31T11:29:15;4.47;;;3.10;;
7929;SDS011;4010;42.698;23.124;2023-07-31T11:31:42;4.10;;;3.30;;
7929;SDS011;4010;42.698;23.124;2023-07-31T11:34:09;3.37;;;3.13;;
7929;SDS011;4010;42.698;23.124;2023-07-31T11:36:35;3.90;;;3.60;;
7929;SDS011;4010;42.698;23.124;2023-07-31T11:39:05;4.20;;;3.90;;
7929;SDS011;4010;42.698;23.124;2023-07-31T11:41:35;4.60;;;4.30;;
7929;SDS011;4010;42.698;23.124;2023-07-31T11:44:01;5.23;;;4.77;;
7929;SDS011;4010;42.698;23.124;2023-07-31T11:46:29;6.17;;;4.90;;
7929;SDS011;4010;42.698;23.124;2023-07-31T11:48:58;5.30;;;4.73;;
7929;SDS011;4010;42.698;23.124;2023-07-31T11:51:26;4.30;;;4.00;;
7929;SDS011;4010;42.698;23.124;2023-07-31T11:53:55;5.00;;;4.70;;
7929;SDS011;4010;42.698;23.124;2023-07-31T11:56:24;5.20;;;4.83;;
7929;SDS011;4010;42.698;23.124;2023-07-31T11:58:55;4.60;;;4.30;;
7929;SDS011;4010;42.698;23.124;2023-07-31T12:01:24;7.47;;;6.97;;
7929;SDS011;4010;42.698;23.124;2023-07-31T12:03:53;7.87;;;7.37;;
7929;SDS011;4010;42.698;23.124;2023-07-31T12:06:21;7.90;;;7.10;;
7929;SDS011;4010;42.698;23.124;2023-07-31T12:08:47;7.23;;;6.67;;
7929;SDS011;4010;42.698;23.124;2023-07-31T12:11:14;6.30;;;5.83;;
7929;SDS011;4010;42.698;23.124;2023-07-31T12:13:43;7.07;;;6.57;;
7929;SDS011;4010;42.698;23.124;2023-07-31T12:16:11;7.23;;;6.63;;
7929;SDS011;4010;42.698;23.124;2023-07-31T12:18:37;5.97;;;5.50;;
7929;SDS011;4010;42.698;23.124;2023-07-31T12:21:05;6.63;;;6.23;;
7929;SDS011;4010;42.698;23.124;2023-07-31T12:23:36;7.57;;;7.07;;
7929;SDS011;4010;42.698;23.124;2023-07-31T12:26:05;7.87;;;7.23;;
7929;SDS011;4010;42.698;23.124;2023-07-31T12:28:37;7.30;;;6.73;;
7929;SDS011;4010;42.698;23.124;2023-07-31T12:31:04;7.30;;;6.77;;
7929;SDS011;4010;42.698;23.124;2023-07-31T12:33:33;8.40;;;7.80;;
7929;SDS011;4010;42.698;23.124;2023-07-31T12:36:01;7.80;;;7.30;;
7929;SDS011;4010;42.698;23.124;2023-07-31T12:38:29;8.57;;;7.87;;
7929;SDS011;4010;42.698;23.124;2023-07-31T12:40:56;8.17;;;7.67;;
7929;SDS011;4010;42.698;23.124;2023-07-31T12:43:23;7.97;;;7.47;;
7929;SDS011;4010;42.698;23.124;2023-07-31T12:45:50;7.47;;;6.80;;
7929;SDS011;4010;42.698;23.124;2023-07-31T12:48:16;8.17;;;7.60;;
7929;SDS011;4010;42.698;23.124;2023-07-31T12:50:45;7.30;;;6.80;;
7929;SDS011;4010;42.698;23.124;2023-07-31T12:53:11;7.73;;;7.23;;
7929;SDS011;4010;42.698;23.124;2023-07-31T12:55:38;8.47;;;7.10;;
7929;SDS011;4010;42.698;23.124;2023-07-31T12:58:05;7.20;;;6.70;;
7929;SDS011;4010;42.698;23.124;2023-07-31T13:00:31;7.20;;;6.70;;
7929;SDS011;4010;42.698;23.124;2023-07-31T13:02:58;6.67;;;6.07;;
7929;SDS011;4010;42.698;23.124;2023-07-31T13:05:25;6.23;;;5.83;;
7929;SDS011;4010;42.698;23.124;2023-07-31T13:07:54;6.93;;;6.53;;
7929;SDS011;4010;42.698;23.124;2023-07-31T13:10:21;6.27;;;5.83;;
7929;SDS011;4010;42.698;23.124;2023-07-31T13:12:48;6.93;;;6.43;;
7929;SDS011;4010;42.698;23.124;2023-07-31T13:15:15;7.27;;;6.67;;
7929;SDS011;4010;42.698;23.124;2023-07-31T13:17:42;6.77;;;6.37;;
7929;SDS011;4010;42.698;23.124;2023-07-31T13:20:09;6.27;;;5.63;;
7929;SDS011;4010;42.698;23.124;2023-07-31T13:22:36;8.37;;;5.87;;
7929;SDS011;4010;42.698;23.124;2023-07-31T13:25:04;6.03;;;5.53;;
7929;SDS011;4010;42.698;23.124;2023-07-31T13:27:32;6.03;;;5.63;;
7929;SDS011;4010;42.698;23.124;2023-07-31T13:29:58;5.90;;;5.40;;
7929;SDS011;4010;42.698;23.124;2023-07-31T13:32:25;6.30;;;5.90;;
7929;SDS011;4010;42.698;23.124;2023-07-31T13:34:52;6.37;;;5.90;;
7929;SDS011;4010;42.698;23.124;2023-07-31T13:37:18;5.37;;;5.07;;
7929;SDS011;4010;42.698;23.124;2023-07-31T13:39:45;5.60;;;5.30;;
7929;SDS011;4010;42.698;23.124;2023-07-31T13:42:13;5.17;;;4.63;;
7929;SDS011;4010;42.698;23.124;2023-07-31T13:44:40;4.73;;;4.43;;
7929;SDS011;4010;42.698;23.124;2023-07-31T13:47:07;5.27;;;4.87;;
7929;SDS011;4010;42.698;23.124;2023-07-31T13:49:34;5.27;;;4.67;;
7929;SDS011;4010;42.698;23.124;2023-07-31T13:52:02;4.83;;;4.53;;
7929;SDS011;4010;42.698;23.124;2023-07-31T13:54:29;4.73;;;4.43;;
7929;SDS011;4010;42.698;23.124;2023-07-31T13:56:56;4.70;;;4.30;;
7929;SDS011;4010;42.698;23.124;2023-07-31T13:59:24;4.57;;;4.27;;
7929;SDS011;4010;42.698;23.124;2023-07-31T14:01:51;4.00;;;3.80;;
7929;SDS011;4010;42.698;23.124;2023-07-31T14:04:17;4.40;;;4.10;;
7929;SDS011;4010;42.698;23.124;2023-07-31T14:06:44;4.80;;;4.40;;
7929;SDS011;4010;42.698;23.124;2023-07-31T14:09:13;4.93;;;4.53;;
7929;SDS011;4010;42.698;23.124;2023-07-31T14:11:39;4.37;;;3.97;;
7929;SDS011;4010;42.698;23.124;2023-07-31T14:14:06;4.83;;;4.20;;
7929;SDS011;4010;42.698;23.124;2023-07-31T14:16:34;4.57;;;4.27;;
7929;SDS011;4010;42.698;23.124;2023-07-31T14:19:01;4.87;;;4.10;;
7929;SDS011;4010;42.698;23.124;2023-07-31T14:21:27;4.67;;;4.27;;
7929;SDS011;4010;42.698;23.124;2023-07-31T14:23:54;4.73;;;4.30;;
7929;SDS011;4010;42.698;23.124;2023-07-31T14:26:21;5.27;;;4.33;;
7929;SDS011;4010;42.698;23.124;2023-07-31T14:28:47;4.47;;;4.17;;
7929;SDS011;4010;42.698;23.124;2023-07-31T14:31:14;4.37;;;4.00;;
7929;SDS011;4010;42.698;23.124;2023-07-31T14:33:42;4.30;;;3.77;;
7929;SDS011;4010;42.698;23.124;2023-07-31T14:36:09;4.30;;;4.00;;
7929;SDS011;4010;42.698;23.124;2023-07-31T14:38:35;4.83;;;4.53;;
7929;SDS011;4010;42.698;23.124;2023-07-31T14:41:02;4.17;;;3.77;;
7929;SDS011;4010;42.698;23.124;2023-07-31T14:43:29;3.90;;;3.60;;
7929;SDS011;4010;42.698;23.124;2023-07-31T14:45:55;4.17;;;3.80;;
7929;SDS011;4010;42.698;23.124;2023-07-31T14:48:24;4.17;;;3.77;;
7929;SDS011;4010;42.698;23.124;2023-07-31T14:50:52;4.20;;;3.80;;
7929;SDS011;4010;42.698;23.124;2023-07-31T14:53:19;3.70;;;3.40;;
7929;SDS011;4010;42.698;23.124;2023-07-31T14:55:47;3.90;;;3.60;;
7929;SDS011;4010;42.698;23.124;2023-07-31T14:58:14;3.83;;;3.53;;
7929;SDS011;4010;42.698;23.124;2023-07-31T15:00:42;3.40;;;3.20;;